createdAt,value
2019-03-24T00:00:47.632Z,101382.12
2019-03-24T00:03:53.651Z,101388.75
2019-03-24T00:06:57.356Z,101387.14
2019-03-24T00:10:01.091Z,101382.75
2019-03-24T00:13:04.910Z,101383.16
2019-03-24T00:16:08.620Z,101382.38
2019-03-24T00:19:12.989Z,101377.08
2019-03-24T00:22:17.132Z,101379.59
2019-03-24T00:25:20.858Z,101383.27
2019-03-24T00:28:24.884Z,101382.41
2019-03-24T00:31:29.205Z,101373.20
2019-03-24T00:34:33.673Z,101365.14
2019-03-24T00:37:37.388Z,101362.90
2019-03-24T00:40:41.645Z,101360.80
2019-03-24T00:43:47.262Z,101353.22
2019-03-24T00:46:51.340Z,101351.45
2019-03-24T00:49:55.742Z,101351.04
2019-03-24T00:52:59.446Z,101353.34
2019-03-24T00:56:03.597Z,101355.48
2019-03-24T00:59:07.727Z,101358.14
2019-03-24T01:02:11.428Z,101363.41
2019-03-24T01:05:15.176Z,101364.86
2019-03-24T01:08:20.838Z,101361.27
2019-03-24T01:11:24.591Z,101362.09
2019-03-24T01:14:29.160Z,101356.44
2019-03-24T01:17:33.188Z,101364.39
2019-03-24T01:20:36.906Z,101362.59
2019-03-24T01:23:40.637Z,101353.81
2019-03-24T01:26:44.747Z,101353.84
2019-03-24T01:29:48.825Z,101359.91
2019-03-24T01:32:53.541Z,101354.81
2019-03-24T01:35:58.079Z,101357.45
2019-03-24T01:39:02.175Z,101353.81
2019-03-24T01:42:07.492Z,101356.11
2019-03-24T01:45:11.388Z,101349.40
2019-03-24T01:48:15.870Z,101349.90
2019-03-24T01:51:19.594Z,101349.45
2019-03-24T01:54:24.082Z,101339.77
2019-03-24T01:57:28.097Z,101344.20
2019-03-24T02:00:31.836Z,101340.64
2019-03-24T02:03:35.962Z,101342.39
2019-03-24T02:06:39.826Z,101336.73
2019-03-24T02:09:44.589Z,101336.72
2019-03-24T02:12:48.998Z,101333.21
2019-03-24T02:15:52.739Z,101335.45
2019-03-24T02:18:56.453Z,101332.33
2019-03-24T02:22:01.482Z,101331.00
2019-03-24T02:25:06.426Z,101326.55
2019-03-24T02:28:11.560Z,101326.20
2019-03-24T02:31:15.628Z,101319.62
2019-03-24T02:34:19.781Z,101321.30
2019-03-24T02:37:23.899Z,101324.87
2019-03-24T02:40:27.994Z,101318.65
2019-03-24T02:43:31.724Z,101314.70
2019-03-24T02:46:35.452Z,101318.67
2019-03-24T02:49:39.161Z,101309.86
2019-03-24T02:52:43.252Z,101308.95
2019-03-24T02:55:47.324Z,101310.80
2019-03-24T02:58:51.846Z,101312.48
2019-03-24T03:01:57.277Z,101310.30
2019-03-24T03:05:01.360Z,101307.61
2019-03-24T03:08:05.313Z,101309.45
2019-03-24T03:11:09.330Z,101306.84
2019-03-24T03:14:13.526Z,101300.18
2019-03-24T03:17:17.623Z,101305.89
2019-03-24T03:20:21.699Z,101312.11
2019-03-24T03:23:25.791Z,101315.20
2019-03-24T03:26:29.502Z,101315.64
2019-03-24T03:29:35.545Z,101310.36
2019-03-24T03:32:39.261Z,101301.58
2019-03-24T03:35:42.994Z,101296.77
2019-03-24T03:38:47.133Z,101299.83
2019-03-24T03:41:50.833Z,101292.32
2019-03-24T03:44:54.562Z,101291.88
2019-03-24T03:47:58.312Z,101290.99
2019-03-24T03:51:02.029Z,101283.53
2019-03-24T03:54:05.752Z,101283.97
2019-03-24T03:57:12.324Z,101277.75
2019-03-24T04:00:20.025Z,101278.63
2019-03-24T04:03:24.168Z,101281.33
2019-03-24T04:06:28.207Z,101276.45
2019-03-24T04:09:32.219Z,101282.23
2019-03-24T04:12:35.949Z,101281.33
2019-03-24T04:15:40.177Z,101276.95
2019-03-24T04:18:44.652Z,101279.53
2019-03-24T04:21:48.349Z,101266.34
2019-03-24T04:24:52.072Z,101263.29
2019-03-24T04:27:55.844Z,101254.88
2019-03-24T04:30:59.964Z,101252.26
2019-03-24T04:34:04.949Z,101252.69
2019-03-24T04:37:08.674Z,101252.68
2019-03-24T04:40:13.369Z,101250.04
2019-03-24T04:43:17.570Z,101250.08
2019-03-24T04:46:21.659Z,101247.45
2019-03-24T04:49:25.378Z,101248.75
2019-03-24T04:52:29.485Z,101254.92
2019-03-24T04:55:34.819Z,101255.76
2019-03-24T04:58:38.631Z,101250.98
2019-03-24T05:01:42.724Z,101247.88
2019-03-24T05:04:46.869Z,101237.77
2019-03-24T05:07:50.791Z,101243.92
2019-03-24T05:10:55.809Z,101246.56
2019-03-24T05:13:59.512Z,101244.80
2019-03-24T05:17:04.211Z,101243.03
2019-03-24T05:20:08.580Z,101240.41
2019-03-24T05:23:12.661Z,101234.21
2019-03-24T05:26:16.388Z,101243.05
2019-03-24T05:29:20.089Z,101242.15
2019-03-24T05:32:25.263Z,101240.41
2019-03-24T05:35:29.345Z,101240.42
2019-03-24T05:38:33.071Z,101244.36
2019-03-24T05:41:37.150Z,101253.17
2019-03-24T05:44:40.847Z,101247.45
2019-03-24T05:47:44.576Z,101246.14
2019-03-24T05:50:48.735Z,101250.11
2019-03-24T05:53:52.744Z,101248.33
2019-03-24T05:56:56.820Z,101253.17
2019-03-24T06:00:00.534Z,101252.32
2019-03-24T06:03:05.102Z,101248.34
2019-03-24T06:06:08.864Z,101247.03
2019-03-24T06:09:12.572Z,101246.59
2019-03-24T06:12:16.820Z,101252.74
2019-03-24T06:15:20.894Z,101242.17
2019-03-24T06:18:24.612Z,101254.93
2019-03-24T06:21:28.719Z,101254.95
2019-03-24T06:24:32.831Z,101251.42
2019-03-24T06:27:36.927Z,101253.20
2019-03-24T06:30:40.660Z,101246.59
2019-03-24T06:33:44.744Z,101244.84
2019-03-24T06:36:48.804Z,101240.86
2019-03-24T06:39:52.882Z,101235.14
2019-03-24T06:42:56.984Z,101239.54
2019-03-24T06:46:01.921Z,101236.00
2019-03-24T06:49:05.633Z,101240.42
2019-03-24T06:52:09.472Z,101235.14
2019-03-24T06:55:14.280Z,101237.34
2019-03-24T06:58:18.382Z,101229.86
2019-03-24T07:01:22.099Z,101232.05
2019-03-24T07:04:26.679Z,101221.49
2019-03-24T07:07:30.833Z,101216.21
2019-03-24T07:10:34.568Z,101214.86
2019-03-24T07:13:38.280Z,101206.51
2019-03-24T07:16:42.317Z,101206.94
2019-03-24T07:19:46.026Z,101212.25
2019-03-24T07:22:50.550Z,101206.95
2019-03-24T07:25:55.067Z,101215.75
2019-03-24T07:29:00.766Z,101209.14
2019-03-24T07:32:04.938Z,101204.73
2019-03-24T07:35:08.913Z,101206.94
2019-03-24T07:38:13.067Z,101211.36
2019-03-24T07:41:16.808Z,101208.22
2019-03-24T07:44:21.340Z,101209.09
2019-03-24T07:47:25.090Z,101204.69
2019-03-24T07:50:28.815Z,101202.52
2019-03-24T07:53:33.440Z,101197.16
2019-03-24T07:56:37.486Z,101191.88
2019-03-24T07:59:41.559Z,101183.97
2019-03-24T08:02:51.628Z,101181.80
2019-03-24T08:05:55.359Z,101173.41
2019-03-24T08:08:59.864Z,101168.91
2019-03-24T08:12:04.847Z,101171.19
2019-03-24T08:15:08.750Z,101170.03
2019-03-24T08:18:12.991Z,101170.97
2019-03-24T08:21:17.816Z,101167.45
2019-03-24T08:24:21.917Z,101158.48
2019-03-24T08:27:26.365Z,101153.77
2019-03-24T08:30:37.713Z,101157.85
2019-03-24T08:33:41.826Z,101161.69
2019-03-24T08:36:46.694Z,101158.45
2019-03-24T08:39:50.388Z,101162.80
2019-03-24T08:42:54.700Z,101161.31
2019-03-24T08:45:59.198Z,101170.62
2019-03-24T08:49:02.899Z,101177.91
2019-03-24T08:52:07.016Z,101179.73
2019-03-24T08:55:11.118Z,101185.34
2019-03-24T08:58:15.191Z,101183.39
2019-03-24T09:01:18.922Z,101189.97
2019-03-24T09:04:22.639Z,101189.73
2019-03-24T09:07:26.412Z,101183.07
2019-03-24T09:10:30.114Z,101182.55
2019-03-24T09:13:33.842Z,101174.52
2019-03-24T09:16:38.035Z,101178.83
2019-03-24T09:19:42.220Z,101172.95
2019-03-24T09:22:46.679Z,101174.37
2019-03-24T09:25:50.391Z,101173.00
2019-03-24T09:28:54.122Z,101177.38
2019-03-24T09:31:58.608Z,101172.08
2019-03-24T09:35:03.011Z,101176.42
2019-03-24T09:38:07.277Z,101168.48
2019-03-24T09:41:11.009Z,101174.59
2019-03-24T09:44:14.970Z,101176.85
2019-03-24T09:47:18.712Z,101179.80
2019-03-24T09:50:22.426Z,101174.64
2019-03-24T09:53:26.730Z,101175.55
2019-03-24T09:56:30.459Z,101165.92
2019-03-24T09:59:34.436Z,101175.84
2019-03-24T10:02:39.103Z,101168.77
2019-03-24T10:05:42.805Z,101165.47
2019-03-24T10:08:47.472Z,101166.70
2019-03-24T10:11:53.741Z,101157.49
2019-03-24T10:14:57.452Z,101149.17
2019-03-24T10:18:01.483Z,101142.48
2019-03-24T10:21:05.180Z,101149.76
2019-03-24T10:24:09.608Z,101162.16
2019-03-24T10:27:14.112Z,101161.20
2019-03-24T10:30:17.815Z,101160.47
2019-03-24T10:33:23.155Z,101156.39
2019-03-24T10:36:26.902Z,101161.19
2019-03-24T10:39:31.972Z,101160.27
2019-03-24T10:42:36.508Z,101163.12
2019-03-24T10:45:40.580Z,101153.84
2019-03-24T10:48:44.319Z,101147.66
2019-03-24T10:51:48.998Z,101146.25
2019-03-24T10:54:53.035Z,101142.80
2019-03-24T10:57:56.759Z,101144.09
2019-03-24T11:01:00.877Z,101124.98
2019-03-24T11:04:06.353Z,101122.89
2019-03-24T11:07:10.099Z,101116.26
2019-03-24T11:10:14.224Z,101105.36
2019-03-24T11:13:18.731Z,101097.61
2019-03-24T11:16:22.460Z,101094.81
2019-03-24T11:19:35.304Z,101098.28
2019-03-24T11:22:32.667Z,101092.50
2019-03-24T11:25:37.811Z,101091.31
2019-03-24T11:28:41.539Z,101092.47
2019-03-24T11:31:45.259Z,101084.34
2019-03-24T11:34:48.957Z,101087.27
2019-03-24T11:37:52.956Z,101087.00
2019-03-24T11:40:56.730Z,101089.66
2019-03-24T11:44:00.486Z,101084.84
2019-03-24T11:47:04.222Z,101081.03
2019-03-24T11:50:10.687Z,101086.23
2019-03-24T11:53:14.791Z,101077.98
2019-03-24T11:56:18.528Z,101079.25
2019-03-24T11:59:22.604Z,101077.48
2019-03-24T12:02:28.242Z,101071.81
2019-03-24T12:05:31.989Z,101072.84
2019-03-24T12:08:35.741Z,101085.41
2019-03-24T12:11:39.476Z,101074.17
2019-03-24T12:14:43.892Z,101067.17
2019-03-24T12:17:48.070Z,101069.05
2019-03-24T12:20:51.784Z,101062.30
2019-03-24T12:23:56.478Z,101059.89
2019-03-24T12:27:01.378Z,101051.41
2019-03-24T12:30:06.644Z,101044.55
2019-03-24T12:33:10.731Z,101048.00
2019-03-24T12:36:14.892Z,101039.17
2019-03-24T12:39:19.007Z,101039.44
2019-03-24T12:42:24.698Z,101032.45
2019-03-24T12:45:28.730Z,101037.98
2019-03-24T12:48:32.471Z,101033.90
2019-03-24T12:51:36.209Z,101027.13
2019-03-24T12:54:40.594Z,101027.42
2019-03-24T12:57:44.788Z,101027.02
2019-03-24T13:00:48.506Z,101033.47
2019-03-24T13:03:53.113Z,101032.48
2019-03-24T13:06:57.257Z,101030.90
2019-03-24T13:10:02.118Z,101034.27
2019-03-24T13:13:07.296Z,101029.94
2019-03-24T13:16:11.018Z,101016.33
2019-03-24T13:19:15.102Z,101012.25
2019-03-24T13:22:19.132Z,101021.92
2019-03-24T13:25:22.876Z,101009.48
2019-03-24T13:28:27.370Z,101007.72
2019-03-24T13:31:31.468Z,101012.63
2019-03-24T13:34:35.984Z,101008.07
2019-03-24T13:37:40.432Z,101005.44
2019-03-24T13:40:44.995Z,101016.31
2019-03-24T13:43:48.754Z,101010.07
2019-03-24T13:46:52.469Z,101006.81
2019-03-24T13:49:56.233Z,101005.46
2019-03-24T13:52:59.981Z,101007.99
2019-03-24T13:56:04.470Z,100995.89
2019-03-24T13:59:08.205Z,101000.73
2019-03-24T14:02:12.470Z,100997.74
2019-03-24T14:05:16.273Z,100999.70
2019-03-24T14:08:21.052Z,101004.50
2019-03-24T14:11:25.168Z,100997.59
2019-03-24T14:14:28.902Z,100999.66
2019-03-24T14:17:33.020Z,100995.66
2019-03-24T14:20:43.220Z,100987.14
2019-03-24T14:23:44.059Z,100991.66
2019-03-24T14:26:48.107Z,100990.00
2019-03-24T14:29:51.892Z,100980.30
2019-03-24T14:32:56.706Z,100978.48
2019-03-24T14:36:01.168Z,100975.36
2019-03-24T14:39:06.226Z,100972.65
2019-03-24T14:42:09.959Z,100975.92
2019-03-24T14:45:15.116Z,100973.38
2019-03-24T14:48:19.241Z,100965.39
2019-03-24T14:51:22.965Z,100963.45
2019-03-24T14:54:26.700Z,100959.72
2019-03-24T14:57:30.427Z,100960.09
2019-03-24T15:00:36.973Z,100956.95
2019-03-24T15:03:40.711Z,100953.95
2019-03-24T15:06:44.441Z,100942.34
2019-03-24T15:09:48.218Z,100946.86
2019-03-24T15:12:51.953Z,100942.45
2019-03-24T15:15:55.711Z,100946.05
2019-03-24T15:18:59.881Z,100941.99
2019-03-24T15:22:03.615Z,100935.58
2019-03-24T15:25:07.934Z,100941.11
2019-03-24T15:28:11.653Z,100940.70
2019-03-24T15:31:15.398Z,100947.30
2019-03-24T15:34:19.503Z,100945.73
2019-03-24T15:37:25.209Z,100931.72
2019-03-24T15:40:29.735Z,100936.20
2019-03-24T15:43:33.478Z,100936.09
2019-03-24T15:46:37.224Z,100933.78
2019-03-24T15:49:41.988Z,100927.11
2019-03-24T15:52:45.729Z,100930.53
2019-03-24T15:55:49.793Z,100929.16
2019-03-24T15:58:53.932Z,100932.63
2019-03-24T16:01:58.876Z,100922.38
2019-03-24T16:05:02.836Z,100929.84
2019-03-24T16:08:06.590Z,100922.52
2019-03-24T16:11:10.320Z,100913.83
2019-03-24T16:14:15.402Z,100908.22
2019-03-24T16:17:19.159Z,100909.72
2019-03-24T16:25:24.066Z,100907.33
2019-03-24T16:28:28.240Z,100902.39
2019-03-24T16:31:32.616Z,100902.62
2019-03-24T16:34:37.464Z,100893.95
2019-03-24T16:37:41.566Z,100892.45
2019-03-24T16:40:45.679Z,100892.89
2019-03-24T16:43:50.240Z,100897.09
2019-03-24T16:46:54.372Z,100895.38
2019-03-24T16:49:58.602Z,100887.23
2019-03-24T16:53:03.147Z,100887.23
2019-03-24T16:56:06.889Z,100886.89
2019-03-24T16:59:11.052Z,100896.99
2019-03-24T17:02:14.899Z,100887.27
2019-03-24T17:05:18.653Z,100891.95
2019-03-24T17:08:22.396Z,100883.27
2019-03-24T17:11:26.571Z,100877.73
2019-03-24T17:14:30.637Z,100877.45
2019-03-24T17:17:34.355Z,100879.23
2019-03-24T17:20:38.089Z,100870.84
2019-03-24T17:23:41.799Z,100878.25
2019-03-24T17:26:45.928Z,100880.37
2019-03-24T17:29:49.675Z,100882.22
2019-03-24T17:32:53.398Z,100879.36
2019-03-24T17:35:57.672Z,100881.67
2019-03-24T17:39:01.868Z,100878.27
2019-03-24T17:42:08.164Z,100882.69
2019-03-24T17:45:12.814Z,100880.87
2019-03-24T17:48:17.841Z,100883.69
2019-03-24T17:51:23.804Z,100886.16
2019-03-24T17:54:28.732Z,100883.32
2019-03-24T17:57:32.876Z,100883.15
2019-03-24T18:00:44.883Z,100892.70
2019-03-24T18:03:49.056Z,100885.22
2019-03-24T18:06:53.227Z,100885.29
2019-03-24T18:09:58.162Z,100885.03
2019-03-24T18:13:03.073Z,100885.34
2019-03-24T18:16:07.924Z,100878.72
2019-03-24T18:19:11.644Z,100888.67
2019-03-24T18:22:15.789Z,100889.53
2019-03-24T18:25:20.712Z,100892.52
2019-03-24T18:28:24.783Z,100890.04
2019-03-24T18:31:28.510Z,100892.64
2019-03-24T18:34:32.262Z,100894.49
2019-03-24T18:37:36.538Z,100891.45
2019-03-24T18:40:40.741Z,100896.20
2019-03-24T18:43:44.860Z,100893.85
2019-03-24T18:46:49.131Z,100892.83
2019-03-24T18:49:53.834Z,100891.37
2019-03-24T18:52:58.170Z,100896.27
2019-03-24T18:56:01.927Z,100893.58
2019-03-24T18:59:05.874Z,100890.05
2019-03-24T19:02:10.711Z,100891.02
2019-03-24T19:05:15.904Z,100885.72
2019-03-24T19:08:20.054Z,100884.44
2019-03-24T19:11:23.837Z,100889.34
2019-03-24T19:14:28.336Z,100886.77
2019-03-24T19:17:32.107Z,100880.22
2019-03-24T19:20:35.875Z,100879.91
2019-03-24T19:23:39.976Z,100874.08
2019-03-24T19:26:43.745Z,100875.46
2019-03-24T19:29:48.500Z,100878.48
2019-03-24T19:32:52.238Z,100879.54
2019-03-24T19:35:56.070Z,100883.72
2019-03-24T19:39:00.004Z,100886.02
2019-03-24T19:42:03.795Z,100878.93
2019-03-24T19:45:08.116Z,100879.94
2019-03-24T19:48:12.238Z,100887.03
2019-03-24T19:51:16.280Z,100878.23
2019-03-24T19:54:20.372Z,100877.33
2019-03-24T19:57:24.274Z,100883.07
2019-03-24T20:00:28.132Z,100874.25
2019-03-24T20:03:31.871Z,100887.91
2019-03-24T20:06:35.713Z,100880.48
2019-03-24T20:09:39.522Z,100871.19
2019-03-24T20:12:43.369Z,100872.92
2019-03-24T20:15:47.215Z,100860.91
2019-03-24T20:18:51.055Z,100865.45
2019-03-24T20:21:55.207Z,100867.59
2019-03-24T20:24:59.046Z,100865.31
2019-03-24T20:28:03.411Z,100870.16
2019-03-24T20:31:07.989Z,100870.38
2019-03-24T20:34:12.157Z,100869.02
2019-03-24T20:37:16.735Z,100872.50
2019-03-24T20:40:20.631Z,100870.66
2019-03-24T20:43:24.934Z,100869.70
2019-03-24T20:46:29.639Z,100871.86
2019-03-24T20:49:33.360Z,100872.30
2019-03-24T20:52:37.561Z,100874.85
2019-03-24T20:55:42.393Z,100874.98
2019-03-24T20:58:46.275Z,100862.11
2019-03-24T21:01:50.812Z,100862.16
2019-03-24T21:04:55.034Z,100856.38
2019-03-24T21:07:59.834Z,100854.47
2019-03-24T21:11:03.604Z,100856.81
2019-03-24T21:14:07.975Z,100864.36
2019-03-24T21:17:12.249Z,100855.89
2019-03-24T21:20:16.886Z,100859.08
2019-03-24T21:23:29.146Z,100852.41
2019-03-24T21:26:27.698Z,100851.47
2019-03-24T21:29:32.093Z,100840.52
2019-03-24T21:32:36.212Z,100849.88
2019-03-24T21:35:40.369Z,100841.75
2019-03-24T21:38:44.103Z,100841.38
2019-03-24T21:41:47.881Z,100840.27
2019-03-24T21:44:51.611Z,100830.96
2019-03-24T21:47:56.407Z,100823.86
2019-03-24T21:51:00.165Z,100823.95
2019-03-24T21:54:03.999Z,100821.80
2019-03-24T21:57:08.656Z,100817.34
2019-03-24T22:00:12.786Z,100818.75
2019-03-24T22:03:17.082Z,100814.88
2019-03-24T22:06:20.817Z,100813.38
2019-03-24T22:09:24.983Z,100814.34
2019-03-24T22:12:28.774Z,100816.23
2019-03-24T22:15:32.623Z,100813.06
2019-03-24T22:18:36.371Z,100811.39
2019-03-24T22:21:40.128Z,100804.38
2019-03-24T22:24:44.289Z,100807.09
2019-03-24T22:27:48.889Z,100803.09
2019-03-24T22:30:53.526Z,100798.61
2019-03-24T22:33:57.246Z,100794.80
2019-03-24T22:37:01.101Z,100801.70
2019-03-24T22:40:06.422Z,100786.76
2019-03-24T22:43:11.044Z,100782.95
2019-03-24T22:46:15.955Z,100773.70
2019-03-24T22:49:20.466Z,100773.06
2019-03-24T22:52:24.608Z,100760.30
2019-03-24T22:55:28.329Z,100759.14
2019-03-24T22:58:32.414Z,100753.08
2019-03-24T23:01:36.277Z,100739.03
2019-03-24T23:04:40.007Z,100732.53
2019-03-24T23:07:43.774Z,100739.88
2019-03-24T23:10:47.842Z,100737.64
2019-03-24T23:13:51.698Z,100738.16
2019-03-24T23:16:55.530Z,100730.38
2019-03-24T23:19:59.563Z,100725.83
2019-03-24T23:23:03.406Z,100712.86
2019-03-24T23:26:07.149Z,100711.63
2019-03-24T23:29:10.866Z,100702.98
2019-03-24T23:32:14.635Z,100698.63
2019-03-24T23:35:18.351Z,100694.22
2019-03-24T23:38:22.187Z,100689.17
2019-03-24T23:41:26.317Z,100680.45
2019-03-24T23:44:30.323Z,100677.94
2019-03-24T23:47:34.095Z,100673.61
2019-03-24T23:50:37.902Z,100665.42
2019-03-24T23:53:42.038Z,100657.84
2019-03-24T23:56:45.816Z,100649.48
2019-03-24T23:59:49.526Z,100651.05
